Terminal Aerodrome Forecast
Issued by NWS Louisville, KY

Home | Current Version | Previous Version | Text Only | Print | Product List | Glossary On
Versions: 1 2 3 4 5 6 7 8 9 10 11 12
000
FTUS43 KLMK 280500
TAFLEX
TAF
KLEX 280525Z 2806/2906 00000KT P6SM SCT150
     FM280800 00000KT 5SM BR FEW150
      TEMPO 2810/2813 2SM BR
     FM281300 06005KT P6SM SCT040=

USA.gov is the U.S. government's official web portal to all federal, state and local government web resources and services.